KPRC/PRC METAR and TAF weather

Enter ICAO airport designator
Station Type Date Time Source
KPRC METAR 2020/09/22 18:53 UTC NOAA

KPRC 221853Z 13006KT 10SM FEW090 SCT100 26/07 A3025 RMK AO2 LTG DSNT NW SLP170 T02610072


Station Type Date Time Source
KPRC Decoded METAR 2020/09/22 18:53 UTC NOAA

PRESCOTT LOVE FIELD, AZ, United States (KPRC) 34-39N 112-25W 1524M
Sep 22, 2020 - 02:53 PM EDT / 2020.09.22 1853 UTC
Wind: from the SE (130 degrees) at 7 MPH (6 KT):0
Visibility: 10 mile(s):0
Sky conditions: partly cloudy
Weather: Lightning observed
Temperature: 79.0 F (26.1 C)
Dew Point: 45.0 F (7.2 C)
Relative Humidity: 30%
Pressure (altimeter): 30.25 in. Hg (1024 hPa)
ob: KPRC 221853Z 13006KT 10SM FEW090 SCT100 26/07 A3025 RMK AO2 LTG DSNT NW SLP170 T02610072
cycle: 19

Station Type Date Time Source
KPRC TAF 2020/09/22 19:30 UTC NOAA

TAF
AMD KPRC 221928Z 2219/2318 18010KT P6SM VCTS SCT100CB
FM230100 20005KT P6SM FEW100

Example: see airport list